createdAt,value
2023-01-09T00:02:44.545Z,9.77
2023-01-09T00:05:30.144Z,12.40
2023-01-09T00:08:15.613Z,11.00
2023-01-09T00:11:01.337Z,9.68
2023-01-09T00:13:47.362Z,9.50
2023-01-09T00:16:32.868Z,8.60
2023-01-09T00:19:18.257Z,4.43
2023-01-09T00:22:03.466Z,12.38
2023-01-09T00:24:48.962Z,10.85
2023-01-09T00:27:35.020Z,11.73
2023-01-09T00:30:20.529Z,7.30
2023-01-09T00:33:06.264Z,10.13
2023-01-09T00:35:51.522Z,5.50
2023-01-09T00:38:37.577Z,4.60
2023-01-09T00:41:39.767Z,11.80
2023-01-09T00:44:34.405Z,6.20
2023-01-09T00:47:31.701Z,7.78
2023-01-09T00:50:22.399Z,6.63
2023-01-09T00:53:15.702Z,8.20
2023-01-09T00:56:06.777Z,11.75
2023-01-09T00:58:53.184Z,7.27
2023-01-09T01:01:38.871Z,8.52
2023-01-09T01:04:56.960Z,6.95
2023-01-09T01:07:43.379Z,8.07
2023-01-09T01:10:28.734Z,14.00
2023-01-09T01:13:15.057Z,6.32
2023-01-09T01:16:00.603Z,7.15
2023-01-09T01:18:46.355Z,7.63
2023-01-09T01:21:31.921Z,3.20
2023-01-09T01:24:19.847Z,2.75
2023-01-09T01:27:05.441Z,8.45
2023-01-09T01:29:51.376Z,7.65
2023-01-09T01:32:37.210Z,3.05
2023-01-09T01:35:22.753Z,7.75
2023-01-09T01:38:08.302Z,9.20
2023-01-09T01:40:54.747Z,5.65
2023-01-09T01:43:56.656Z,7.38
2023-01-09T01:46:42.311Z,4.72
2023-01-09T01:49:27.792Z,3.45
2023-01-09T01:52:13.652Z,3.40
2023-01-09T01:54:59.782Z,4.63
2023-01-09T01:57:49.424Z,7.72
2023-01-09T02:00:40.129Z,7.72
2023-01-09T02:03:27.701Z,6.20
2023-01-09T02:06:14.910Z,9.27
2023-01-09T02:09:01.914Z,3.97
2023-01-09T02:11:49.608Z,6.45
2023-01-09T02:14:35.015Z,4.22
2023-01-09T02:17:49.605Z,11.93
2023-01-09T02:20:47.899Z,4.22
2023-01-09T02:23:42.608Z,2.67
2023-01-09T02:26:46.455Z,4.35
2023-01-09T02:29:47.016Z,2.60
2023-01-09T02:32:47.301Z,4.22
2023-01-09T02:35:51.409Z,4.10
2023-01-09T02:38:54.464Z,8.85
2023-01-09T02:41:58.614Z,2.63
2023-01-09T02:44:44.572Z,8.90
2023-01-09T02:47:30.068Z,0.77
2023-01-09T02:50:23.627Z,8.20
2023-01-09T02:53:18.103Z,4.80
2023-01-09T02:56:26.704Z,2.15
2023-01-09T02:59:41.489Z,10.35
2023-01-09T03:03:04.175Z,8.07
2023-01-09T03:09:01.772Z,0.55
2023-01-09T03:11:53.790Z,5.25
2023-01-09T03:14:43.294Z,5.05
2023-01-09T03:17:37.145Z,1.05
2023-01-09T03:20:27.644Z,2.63
2023-01-09T03:23:13.239Z,2.47
2023-01-09T03:25:58.812Z,5.68
2023-01-09T03:28:44.978Z,1.30
2023-01-09T03:31:30.917Z,1.77
2023-01-09T03:34:16.345Z,1.02
2023-01-09T03:37:01.972Z,2.17
2023-01-09T03:39:47.530Z,1.40
2023-01-09T03:42:32.917Z,4.47
2023-01-09T03:45:18.458Z,0.10
2023-01-09T03:48:04.402Z,0.85
2023-01-09T03:50:54.641Z,10.20
2023-01-09T03:53:40.380Z,1.45
2023-01-09T03:56:25.790Z,3.67
2023-01-09T03:59:11.068Z,3.63
2023-01-09T04:01:57.196Z,4.18
2023-01-09T04:04:42.875Z,2.50
2023-01-09T04:07:28.528Z,0.82
2023-01-09T04:10:13.903Z,1.85
2023-01-09T04:12:59.258Z,0.20
2023-01-09T04:15:44.488Z,3.60
2023-01-09T04:18:29.877Z,0.55
2023-01-09T04:21:15.860Z,1.63
2023-01-09T04:24:01.177Z,0.35
2023-01-09T04:26:46.454Z,1.25
2023-01-09T04:29:31.833Z,0.30
2023-01-09T04:32:17.155Z,3.13
2023-01-09T04:35:02.701Z,2.88
2023-01-09T04:37:48.233Z,1.65
2023-01-09T04:40:33.703Z,3.20
2023-01-09T04:43:19.128Z,2.13
2023-01-09T04:46:04.479Z,2.17
2023-01-09T04:48:49.787Z,3.15
2023-01-09T04:51:35.137Z,1.35
2023-01-09T04:54:20.981Z,5.85
2023-01-09T04:57:06.768Z,8.45
2023-01-09T04:59:52.329Z,5.55
2023-01-09T05:02:39.635Z,1.40
2023-01-09T05:05:25.005Z,0.90
2023-01-09T05:08:10.528Z,0.75
2023-01-09T05:10:56.003Z,4.85
2023-01-09T05:13:41.297Z,5.82
2023-01-09T05:16:26.796Z,2.70
2023-01-09T05:19:12.149Z,5.85
2023-01-09T05:21:57.457Z,2.25
2023-01-09T05:24:43.172Z,0.95
2023-01-09T05:27:30.475Z,6.40
2023-01-09T05:30:18.238Z,1.98
2023-01-09T05:33:04.100Z,2.10
2023-01-09T05:35:49.816Z,3.05
2023-01-09T05:38:35.513Z,1.25
2023-01-09T05:41:22.514Z,2.33
2023-01-09T05:44:09.105Z,2.83
2023-01-09T05:46:54.531Z,6.03
2023-01-09T05:49:39.839Z,1.05
2023-01-09T05:52:25.219Z,3.30
2023-01-09T05:55:12.424Z,12.43
2023-01-09T05:57:57.721Z,7.10
2023-01-09T06:00:43.168Z,5.00
2023-01-09T06:03:28.508Z,5.00
2023-01-09T06:06:13.835Z,4.68
2023-01-09T06:08:59.173Z,7.88
2023-01-09T06:11:44.507Z,2.28
2023-01-09T06:14:29.915Z,11.10
2023-01-09T06:17:15.164Z,5.78
2023-01-09T06:20:00.655Z,9.07
2023-01-09T06:22:46.101Z,4.70
2023-01-09T06:25:31.544Z,3.00
2023-01-09T06:28:17.058Z,5.75
2023-01-09T06:31:02.479Z,7.38
2023-01-09T06:33:48.464Z,9.00
2023-01-09T06:36:33.829Z,10.93
2023-01-09T06:39:19.283Z,18.60
2023-01-09T06:42:05.124Z,8.25
2023-01-09T06:44:50.731Z,5.93
2023-01-09T06:47:36.603Z,7.43
2023-01-09T06:50:22.101Z,17.63
2023-01-09T06:53:07.631Z,13.65
2023-01-09T06:55:53.575Z,12.05
2023-01-09T06:58:38.880Z,13.10
2023-01-09T07:01:24.437Z,2.78
2023-01-09T07:04:12.866Z,13.48
2023-01-09T07:06:58.388Z,9.10
2023-01-09T07:09:43.840Z,11.90
2023-01-09T07:12:29.206Z,6.13
2023-01-09T07:15:14.941Z,7.75
2023-01-09T07:18:00.633Z,4.05
2023-01-09T07:20:45.892Z,10.93
2023-01-09T07:23:31.526Z,9.20
2023-01-09T07:26:16.722Z,10.25
2023-01-09T07:29:02.232Z,12.95
2023-01-09T07:31:47.827Z,11.43
2023-01-09T07:34:33.452Z,14.48
2023-01-09T07:37:19.401Z,7.90
2023-01-09T07:40:05.332Z,13.50
2023-01-09T07:42:53.571Z,9.73
2023-01-09T07:45:39.341Z,13.40
2023-01-09T07:48:24.504Z,11.32
2023-01-09T07:51:10.564Z,9.65
2023-01-09T07:53:56.158Z,11.02
2023-01-09T07:56:41.475Z,16.15
2023-01-09T07:59:29.625Z,12.13
2023-01-09T08:02:15.229Z,7.38
2023-01-09T08:05:00.606Z,11.85
2023-01-09T08:07:46.267Z,7.70
2023-01-09T08:10:31.657Z,4.47
2023-01-09T08:13:17.250Z,13.90
2023-01-09T08:16:02.494Z,14.43
2023-01-09T08:18:48.010Z,11.30
2023-01-09T08:21:33.382Z,6.90
2023-01-09T08:24:18.713Z,8.68
2023-01-09T08:27:04.155Z,7.47
2023-01-09T08:29:49.573Z,9.65
2023-01-09T08:32:35.156Z,14.90
2023-01-09T08:35:21.619Z,20.52
2023-01-09T08:38:07.229Z,10.80
2023-01-09T08:40:52.621Z,12.18
2023-01-09T08:43:56.456Z,6.13
2023-01-09T08:47:01.151Z,6.07
2023-01-09T08:49:46.950Z,9.88
2023-01-09T08:52:32.953Z,11.10
2023-01-09T08:55:18.541Z,12.85
2023-01-09T08:58:04.031Z,9.18
2023-01-09T09:00:49.321Z,9.38
2023-01-09T09:03:34.859Z,18.40
2023-01-09T09:06:20.579Z,5.35
2023-01-09T09:09:07.055Z,10.93
2023-01-09T09:11:52.809Z,6.60
2023-01-09T09:14:56.803Z,8.95
2023-01-09T09:17:44.530Z,9.75
2023-01-09T09:20:33.204Z,10.55
2023-01-09T09:23:18.906Z,11.88
2023-01-09T09:26:05.100Z,9.50
2023-01-09T09:28:50.293Z,10.25
2023-01-09T09:31:38.655Z,11.35
2023-01-09T09:34:24.079Z,16.23
2023-01-09T09:37:09.834Z,12.18
2023-01-09T09:39:55.934Z,6.68
2023-01-09T09:43:04.016Z,16.13
2023-01-09T09:46:27.237Z,10.10
2023-01-09T09:49:21.944Z,8.60
2023-01-09T09:52:29.372Z,15.07
2023-01-09T09:55:27.176Z,10.13
2023-01-09T09:58:22.330Z,8.88
2023-01-09T10:01:10.215Z,14.95
2023-01-09T10:04:01.754Z,8.10
2023-01-09T10:06:57.687Z,8.88
2023-01-09T10:09:49.927Z,14.88
2023-01-09T10:12:47.744Z,17.35
2023-01-09T10:15:47.474Z,8.10
2023-01-09T10:18:51.016Z,16.08
2023-01-09T10:22:20.389Z,7.60
2023-01-09T10:25:26.907Z,8.85
2023-01-09T10:28:40.369Z,10.40
2023-01-09T10:31:52.940Z,6.97
2023-01-09T10:35:12.149Z,5.50
2023-01-09T10:38:01.547Z,10.48
2023-01-09T10:41:01.920Z,3.83
2023-01-09T10:44:07.451Z,5.88
2023-01-09T10:46:58.296Z,15.00
2023-01-09T10:49:45.366Z,8.43
2023-01-09T10:52:41.634Z,11.55
2023-01-09T10:55:41.470Z,8.43
2023-01-09T10:58:27.468Z,7.47
2023-01-09T11:01:13.083Z,10.95
2023-01-09T11:04:01.301Z,14.82
2023-01-09T11:06:52.975Z,6.65
2023-01-09T11:10:01.374Z,3.43
2023-01-09T11:12:47.775Z,6.25
2023-01-09T11:15:33.505Z,5.25
2023-01-09T11:18:24.713Z,4.25
2023-01-09T11:21:38.301Z,6.60
2023-01-09T11:24:29.686Z,10.48
2023-01-09T11:27:24.198Z,8.82
2023-01-09T11:30:13.090Z,5.45
2023-01-09T11:32:59.340Z,2.38
2023-01-09T11:36:13.862Z,3.15
2023-01-09T11:39:01.154Z,5.55
2023-01-09T11:41:52.752Z,11.60
2023-01-09T11:44:38.079Z,17.97
2023-01-09T11:47:40.883Z,10.75
2023-01-09T11:50:29.066Z,13.77
2023-01-09T11:53:20.567Z,3.72
2023-01-09T11:56:06.017Z,11.70
2023-01-09T11:58:51.672Z,14.98
2023-01-09T12:01:55.423Z,7.03
2023-01-09T12:05:01.737Z,23.63
2023-01-09T12:08:07.000Z,8.20
2023-01-09T12:11:26.638Z,10.60
2023-01-09T12:14:40.261Z,8.70
2023-01-09T12:17:45.519Z,10.93
2023-01-09T12:20:46.374Z,8.57
2023-01-09T12:23:59.752Z,7.60
2023-01-09T12:27:11.292Z,9.38
2023-01-09T12:30:17.900Z,9.77
2023-01-09T12:33:21.782Z,11.23
2023-01-09T12:36:18.463Z,11.65
2023-01-09T12:39:12.732Z,18.08
2023-01-09T12:42:16.823Z,14.88
2023-01-09T12:45:26.484Z,15.32
2023-01-09T12:48:47.984Z,13.43
2023-01-09T12:52:01.451Z,15.43
2023-01-09T12:54:57.439Z,14.82
2023-01-09T12:57:46.155Z,10.27
2023-01-09T13:00:41.416Z,15.85
2023-01-09T13:03:41.786Z,19.08
2023-01-09T13:06:29.432Z,17.00
2023-01-09T13:09:25.372Z,7.38
2023-01-09T13:12:21.810Z,24.30
2023-01-09T13:15:39.135Z,17.92
2023-01-09T13:18:29.776Z,12.15
2023-01-09T13:21:16.444Z,15.27
2023-01-09T13:24:13.030Z,16.83
2023-01-09T13:27:05.233Z,9.65
2023-01-09T13:29:58.555Z,20.77
2023-01-09T13:32:58.015Z,14.95
2023-01-09T13:35:55.852Z,26.23
2023-01-09T13:38:41.592Z,15.43
2023-01-09T13:41:46.564Z,15.38
2023-01-09T13:44:33.718Z,11.77
2023-01-09T13:47:22.055Z,24.95
2023-01-09T13:50:09.223Z,28.15
2023-01-09T13:52:54.531Z,25.80
2023-01-09T13:55:59.993Z,16.90
2023-01-09T13:58:54.795Z,18.23
2023-01-09T14:01:41.757Z,15.77
2023-01-09T14:04:37.824Z,17.52
2023-01-09T14:07:25.726Z,24.95
2023-01-09T14:10:27.673Z,21.85
2023-01-09T14:13:30.577Z,28.50
2023-01-09T14:16:23.000Z,26.75
2023-01-09T14:19:17.588Z,20.10
2023-01-09T14:22:05.240Z,25.25
2023-01-09T14:24:52.996Z,30.02
2023-01-09T14:27:56.978Z,33.65
2023-01-09T14:30:54.719Z,21.75
2023-01-09T14:33:40.272Z,26.25
2023-01-09T14:36:30.354Z,22.58
2023-01-09T14:39:18.404Z,18.00
2023-01-09T14:42:09.367Z,22.35
2023-01-09T14:45:14.288Z,22.40
2023-01-09T14:48:06.281Z,16.10
2023-01-09T14:50:56.015Z,24.95
2023-01-09T14:53:42.906Z,30.83
2023-01-09T14:56:31.258Z,18.13
2023-01-09T14:59:17.414Z,21.02
2023-01-09T15:02:03.033Z,16.88
2023-01-09T15:04:49.164Z,31.35
2023-01-09T15:07:43.919Z,18.55
2023-01-09T15:10:33.029Z,18.15
2023-01-09T15:13:30.948Z,19.92
2023-01-09T15:16:19.879Z,18.33
2023-01-09T15:19:08.708Z,23.48
2023-01-09T15:22:06.706Z,13.77
2023-01-09T15:24:52.243Z,10.10
2023-01-09T15:27:47.871Z,17.92
2023-01-09T15:30:36.021Z,29.35
2023-01-09T15:33:21.882Z,23.02
2023-01-09T15:36:21.067Z,20.70
2023-01-09T15:39:07.387Z,28.35
2023-01-09T15:42:13.284Z,18.45
2023-01-09T15:44:58.802Z,21.48
2023-01-09T15:47:44.092Z,14.07
2023-01-09T15:50:29.917Z,30.67
2023-01-09T15:53:18.975Z,12.68
2023-01-09T15:56:17.073Z,11.95
2023-01-09T15:59:02.313Z,14.85
2023-01-09T16:02:07.659Z,22.73
2023-01-09T16:04:55.713Z,20.95
2023-01-09T16:07:47.173Z,19.60
2023-01-09T16:10:36.067Z,17.17
2023-01-09T16:13:24.428Z,18.02
2023-01-09T16:16:10.260Z,10.40
2023-01-09T16:18:57.232Z,17.77
2023-01-09T16:21:42.968Z,21.38
2023-01-09T16:24:40.081Z,14.25
2023-01-09T16:27:35.178Z,15.30
2023-01-09T16:30:27.003Z,32.65
2023-01-09T16:33:22.043Z,32.40
2023-01-09T16:36:10.248Z,15.45
2023-01-09T16:38:56.864Z,17.00
2023-01-09T16:42:02.348Z,18.00
2023-01-09T16:44:47.804Z,25.10
2023-01-09T16:47:33.365Z,18.88
2023-01-09T16:50:18.962Z,20.63
2023-01-09T16:53:18.146Z,26.10
2023-01-09T16:56:04.180Z,18.15
2023-01-09T16:58:50.581Z,29.92
2023-01-09T17:01:36.224Z,22.23
2023-01-09T17:04:24.138Z,28.40
2023-01-09T17:07:16.987Z,24.75
2023-01-09T17:10:02.416Z,25.70
2023-01-09T17:12:48.087Z,20.73
2023-01-09T17:15:33.702Z,14.65
2023-01-09T17:18:24.131Z,33.80
2023-01-09T17:21:19.720Z,30.98
2023-01-09T17:24:24.390Z,25.63
2023-01-09T17:27:28.553Z,17.42
2023-01-09T17:30:18.707Z,22.17
2023-01-09T17:33:05.533Z,25.35
2023-01-09T17:35:50.887Z,16.50
2023-01-09T17:38:36.469Z,34.55
2023-01-09T17:41:23.723Z,27.73
2023-01-09T17:44:11.022Z,26.50
2023-01-09T17:46:56.549Z,26.95
2023-01-09T17:49:42.524Z,22.58
2023-01-09T17:52:28.710Z,41.13
2023-01-09T17:55:14.959Z,20.88
2023-01-09T17:58:00.840Z,34.72
2023-01-09T18:00:48.103Z,32.92
2023-01-09T18:03:34.514Z,30.83
2023-01-09T18:06:21.554Z,30.10
2023-01-09T18:09:07.874Z,34.95
2023-01-09T18:11:53.636Z,28.27
2023-01-09T18:14:39.108Z,30.65
2023-01-09T18:17:24.781Z,18.95
2023-01-09T18:20:10.890Z,47.17
2023-01-09T18:22:56.388Z,32.83
2023-01-09T18:25:42.857Z,20.50
2023-01-09T18:28:28.185Z,35.15
2023-01-09T18:31:15.706Z,31.98
2023-01-09T18:34:06.873Z,21.63
2023-01-09T18:36:52.463Z,32.28
2023-01-09T18:39:37.767Z,22.65
2023-01-09T18:42:23.060Z,27.15
2023-01-09T18:45:08.863Z,38.10
2023-01-09T18:47:54.231Z,30.92
2023-01-09T18:50:39.430Z,24.50
2023-01-09T18:53:24.642Z,28.15
2023-01-09T18:56:10.192Z,33.65
2023-01-09T18:58:57.328Z,29.08
2023-01-09T19:01:43.481Z,36.08
2023-01-09T19:04:28.719Z,34.67
2023-01-09T19:07:14.155Z,17.08
2023-01-09T19:09:59.512Z,19.35
2023-01-09T19:12:44.866Z,19.98
2023-01-09T19:15:30.415Z,32.45
2023-01-09T19:18:16.007Z,25.77
2023-01-09T19:21:01.534Z,34.25
2023-01-09T19:23:47.888Z,33.58
2023-01-09T19:26:33.489Z,30.00
2023-01-09T19:29:19.483Z,27.70
2023-01-09T19:32:08.554Z,24.55
2023-01-09T19:34:53.715Z,27.33
2023-01-09T19:37:39.106Z,18.52
2023-01-09T19:40:25.703Z,19.98
2023-01-09T19:43:11.255Z,16.45
2023-01-09T19:45:57.097Z,25.45
2023-01-09T19:48:42.995Z,24.50
2023-01-09T19:51:28.246Z,17.85
2023-01-09T19:54:13.610Z,19.95
2023-01-09T19:56:58.952Z,34.33
2023-01-09T19:59:44.292Z,29.13
2023-01-09T20:02:29.810Z,31.17
2023-01-09T20:05:15.296Z,18.35
2023-01-09T20:08:03.583Z,31.58
2023-01-09T20:10:48.929Z,24.83
2023-01-09T20:13:35.162Z,24.75
2023-01-09T20:16:22.775Z,26.45
2023-01-09T20:19:10.647Z,30.55
2023-01-09T20:21:56.155Z,26.08
2023-01-09T20:24:41.979Z,20.67
2023-01-09T20:27:27.502Z,27.60
2023-01-09T20:30:13.516Z,28.60
2023-01-09T20:33:00.152Z,22.67
2023-01-09T20:35:46.020Z,28.52
2023-01-09T20:38:32.806Z,23.27
2023-01-09T20:41:24.007Z,24.23
2023-01-09T20:44:14.176Z,24.40
2023-01-09T20:46:59.528Z,24.50
2023-01-09T20:49:44.934Z,18.05
2023-01-09T20:52:30.504Z,23.85
2023-01-09T20:55:16.014Z,22.23
2023-01-09T20:58:01.445Z,11.95
2023-01-09T21:00:46.892Z,14.13
2023-01-09T21:03:32.807Z,23.77
2023-01-09T21:06:20.196Z,10.13
2023-01-09T21:09:05.967Z,34.67
2023-01-09T21:11:51.631Z,18.35
2023-01-09T21:14:38.990Z,25.90
2023-01-09T21:17:24.315Z,24.25
2023-01-09T21:20:13.430Z,21.50
2023-01-09T21:22:59.040Z,16.98
2023-01-09T21:25:45.339Z,27.15
2023-01-09T21:28:31.849Z,29.85
2023-01-09T21:31:20.454Z,26.42
2023-01-09T21:34:08.171Z,33.78
2023-01-09T21:36:53.956Z,25.05
2023-01-09T21:39:39.490Z,32.85
2023-01-09T21:42:43.297Z,24.42
2023-01-09T21:45:48.071Z,26.42
2023-01-09T21:48:33.835Z,23.15
2023-01-09T21:51:19.588Z,12.90
2023-01-09T21:54:05.340Z,20.83
2023-01-09T21:56:52.558Z,20.15
2023-01-09T21:59:37.731Z,30.00
2023-01-09T22:02:23.694Z,35.35
2023-01-09T22:05:09.455Z,28.08
2023-01-09T22:07:56.122Z,20.52
2023-01-09T22:10:41.883Z,22.48
2023-01-09T22:13:28.382Z,16.30
2023-01-09T22:16:14.068Z,14.65
2023-01-09T22:18:59.397Z,18.17
2023-01-09T22:21:44.860Z,28.38
2023-01-09T22:24:30.509Z,23.45
2023-01-09T22:27:16.252Z,22.17
2023-01-09T22:30:01.663Z,26.42
2023-01-09T22:32:46.999Z,27.35
2023-01-09T22:35:32.406Z,25.02
2023-01-09T22:38:17.736Z,19.27
2023-01-09T22:41:04.157Z,29.17
2023-01-09T22:43:49.906Z,24.95
2023-01-09T22:46:35.618Z,35.83
2023-01-09T22:49:21.024Z,24.88
2023-01-09T22:52:06.483Z,28.17
2023-01-09T22:54:51.885Z,41.25
2023-01-09T22:57:37.191Z,19.00
2023-01-09T23:00:22.505Z,30.25
2023-01-09T23:03:07.872Z,12.60
2023-01-09T23:06:05.568Z,25.27
2023-01-09T23:08:52.839Z,23.17
2023-01-09T23:11:57.205Z,14.70
2023-01-09T23:14:42.903Z,22.65
2023-01-09T23:17:28.259Z,17.00
2023-01-09T23:20:13.603Z,28.60
2023-01-09T23:22:59.178Z,23.17
2023-01-09T23:25:52.192Z,23.88
2023-01-09T23:28:37.416Z,15.13
2023-01-09T23:31:22.773Z,18.95
2023-01-09T23:34:08.514Z,26.77
2023-01-09T23:36:57.423Z,11.00
2023-01-09T23:39:43.078Z,11.60
2023-01-09T23:42:46.974Z,20.75
2023-01-09T23:45:33.891Z,13.02
2023-01-09T23:48:19.866Z,13.18
2023-01-09T23:51:08.276Z,15.60
2023-01-09T23:53:53.844Z,21.27
2023-01-09T23:56:39.255Z,13.55
2023-01-09T23:59:24.646Z,16.05
